sensor_id;sensor_type;location;lat;lon;timestamp;P1;durP1;ratioP1;P2;durP2;ratioP2
75504;SDS011;64085;54.974;73.410;2022-10-15T00:02:14;8.25;;;3.50;;
75504;SDS011;64085;54.974;73.410;2022-10-15T00:04:39;5.80;;;3.17;;
75504;SDS011;64085;54.974;73.410;2022-10-15T00:07:05;6.22;;;2.60;;
75504;SDS011;64085;54.974;73.410;2022-10-15T00:09:31;5.45;;;2.80;;
75504;SDS011;64085;54.974;73.410;2022-10-15T00:11:57;7.90;;;2.58;;
75504;SDS011;64085;54.974;73.410;2022-10-15T00:14:22;6.93;;;2.25;;
75504;SDS011;64085;54.974;73.410;2022-10-15T00:16:48;8.50;;;3.38;;
75504;SDS011;64085;54.974;73.410;2022-10-15T00:19:14;5.78;;;2.63;;
75504;SDS011;64085;54.974;73.410;2022-10-15T00:21:40;5.35;;;2.15;;
75504;SDS011;64085;54.974;73.410;2022-10-15T00:24:06;7.63;;;2.33;;
75504;SDS011;64085;54.974;73.410;2022-10-15T00:26:32;8.65;;;2.95;;
75504;SDS011;64085;54.974;73.410;2022-10-15T00:28:59;8.70;;;2.58;;
75504;SDS011;64085;54.974;73.410;2022-10-15T00:31:27;10.35;;;3.75;;
75504;SDS011;64085;54.974;73.410;2022-10-15T00:33:55;10.70;;;3.63;;
75504;SDS011;64085;54.974;73.410;2022-10-15T00:36:24;9.70;;;2.47;;
75504;SDS011;64085;54.974;73.410;2022-10-15T00:38:52;5.88;;;3.13;;
75504;SDS011;64085;54.974;73.410;2022-10-15T00:43:54;6.60;;;3.92;;
75504;SDS011;64085;54.974;73.410;2022-10-15T00:52:01;7.18;;;3.47;;
75504;SDS011;64085;54.974;73.410;2022-10-15T00:54:41;7.47;;;2.83;;
75504;SDS011;64085;54.974;73.410;2022-10-15T00:57:10;8.02;;;2.75;;
75504;SDS011;64085;54.974;73.410;2022-10-15T00:59:37;7.13;;;2.40;;
75504;SDS011;64085;54.974;73.410;2022-10-15T01:02:07;3.92;;;2.42;;
75504;SDS011;64085;54.974;73.410;2022-10-15T01:04:33;5.60;;;2.60;;
75504;SDS011;64085;54.974;73.410;2022-10-15T01:07:00;4.57;;;2.67;;
75504;SDS011;64085;54.974;73.410;2022-10-15T01:09:25;6.97;;;2.63;;
75504;SDS011;64085;54.974;73.410;2022-10-15T01:11:52;6.80;;;2.50;;
75504;SDS011;64085;54.974;73.410;2022-10-15T01:17:06;6.05;;;3.00;;
75504;SDS011;64085;54.974;73.410;2022-10-15T01:30:59;6.18;;;3.08;;
75504;SDS011;64085;54.974;73.410;2022-10-15T01:33:40;7.85;;;3.28;;
75504;SDS011;64085;54.974;73.410;2022-10-15T01:36:16;4.45;;;3.30;;
75504;SDS011;64085;54.974;73.410;2022-10-15T01:38:57;4.97;;;2.58;;
75504;SDS011;64085;54.974;73.410;2022-10-15T01:44:12;8.35;;;3.25;;
75504;SDS011;64085;54.974;73.410;2022-10-15T01:46:47;6.15;;;3.10;;
75504;SDS011;64085;54.974;73.410;2022-10-15T01:49:14;7.07;;;3.45;;
75504;SDS011;64085;54.974;73.410;2022-10-15T01:51:45;7.68;;;3.97;;
75504;SDS011;64085;54.974;73.410;2022-10-15T01:54:14;6.43;;;3.90;;
75504;SDS011;64085;54.974;73.410;2022-10-15T01:56:43;11.02;;;4.30;;
75504;SDS011;64085;54.974;73.410;2022-10-15T01:59:16;10.27;;;3.72;;
75504;SDS011;64085;54.974;73.410;2022-10-15T02:01:45;10.15;;;3.55;;
75504;SDS011;64085;54.974;73.410;2022-10-15T02:04:16;14.88;;;4.40;;
75504;SDS011;64085;54.974;73.410;2022-10-15T02:06:48;9.98;;;4.35;;
75504;SDS011;64085;54.974;73.410;2022-10-15T02:17:39;7.68;;;4.03;;
75504;SDS011;64085;54.974;73.410;2022-10-15T02:20:13;10.98;;;4.22;;
75504;SDS011;64085;54.974;73.410;2022-10-15T02:22:46;9.77;;;5.85;;
75504;SDS011;64085;54.974;73.410;2022-10-15T02:25:19;10.07;;;5.28;;
75504;SDS011;64085;54.974;73.410;2022-10-15T02:27:48;14.10;;;6.30;;
75504;SDS011;64085;54.974;73.410;2022-10-15T02:30:17;19.92;;;7.30;;
75504;SDS011;64085;54.974;73.410;2022-10-15T02:32:44;10.20;;;5.00;;
75504;SDS011;64085;54.974;73.410;2022-10-15T02:35:15;10.80;;;5.13;;
75504;SDS011;64085;54.974;73.410;2022-10-15T02:37:43;7.85;;;3.72;;
75504;SDS011;64085;54.974;73.410;2022-10-15T02:40:12;12.38;;;5.90;;
75504;SDS011;64085;54.974;73.410;2022-10-15T02:42:38;14.55;;;6.97;;
75504;SDS011;64085;54.974;73.410;2022-10-15T02:45:04;13.95;;;7.55;;
75504;SDS011;64085;54.974;73.410;2022-10-15T02:47:30;9.25;;;6.57;;
75504;SDS011;64085;54.974;73.410;2022-10-15T02:49:56;14.10;;;6.40;;
75504;SDS011;64085;54.974;73.410;2022-10-15T02:52:22;8.10;;;5.95;;
75504;SDS011;64085;54.974;73.410;2022-10-15T02:54:48;17.10;;;7.25;;
75504;SDS011;64085;54.974;73.410;2022-10-15T02:57:14;14.68;;;5.78;;
75504;SDS011;64085;54.974;73.410;2022-10-15T02:59:40;10.40;;;5.95;;
75504;SDS011;64085;54.974;73.410;2022-10-15T03:02:06;10.13;;;5.57;;
75504;SDS011;64085;54.974;73.410;2022-10-15T03:04:32;13.70;;;4.97;;
75504;SDS011;64085;54.974;73.410;2022-10-15T03:06:58;11.43;;;5.55;;
75504;SDS011;64085;54.974;73.410;2022-10-15T03:09:24;9.35;;;5.25;;
75504;SDS011;64085;54.974;73.410;2022-10-15T03:11:49;10.40;;;5.57;;
75504;SDS011;64085;54.974;73.410;2022-10-15T03:14:15;10.43;;;4.88;;
75504;SDS011;64085;54.974;73.410;2022-10-15T03:16:41;11.10;;;5.00;;
75504;SDS011;64085;54.974;73.410;2022-10-15T03:19:07;12.43;;;4.35;;
75504;SDS011;64085;54.974;73.410;2022-10-15T03:21:33;10.65;;;5.15;;
75504;SDS011;64085;54.974;73.410;2022-10-15T03:23:59;8.73;;;5.60;;
75504;SDS011;64085;54.974;73.410;2022-10-15T03:26:24;14.40;;;5.40;;
75504;SDS011;64085;54.974;73.410;2022-10-15T03:28:50;9.73;;;5.35;;
75504;SDS011;64085;54.974;73.410;2022-10-15T03:31:16;9.90;;;5.53;;
75504;SDS011;64085;54.974;73.410;2022-10-15T03:33:42;9.77;;;4.72;;
75504;SDS011;64085;54.974;73.410;2022-10-15T03:36:08;15.77;;;7.28;;
75504;SDS011;64085;54.974;73.410;2022-10-15T03:38:34;19.05;;;5.50;;
75504;SDS011;64085;54.974;73.410;2022-10-15T03:40:59;14.90;;;6.28;;
75504;SDS011;64085;54.974;73.410;2022-10-15T03:43:25;19.20;;;7.50;;
75504;SDS011;64085;54.974;73.410;2022-10-15T03:45:51;19.05;;;8.70;;
75504;SDS011;64085;54.974;73.410;2022-10-15T03:48:17;20.25;;;9.35;;
75504;SDS011;64085;54.974;73.410;2022-10-15T03:50:46;22.90;;;10.00;;
75504;SDS011;64085;54.974;73.410;2022-10-15T03:53:12;34.15;;;13.68;;
75504;SDS011;64085;54.974;73.410;2022-10-15T03:55:38;40.55;;;14.73;;
75504;SDS011;64085;54.974;73.410;2022-10-15T03:58:03;31.95;;;13.98;;
75504;SDS011;64085;54.974;73.410;2022-10-15T04:00:29;36.22;;;13.75;;
75504;SDS011;64085;54.974;73.410;2022-10-15T04:02:55;40.30;;;13.32;;
75504;SDS011;64085;54.974;73.410;2022-10-15T04:05:21;22.95;;;10.10;;
75504;SDS011;64085;54.974;73.410;2022-10-15T04:07:46;20.30;;;9.95;;
75504;SDS011;64085;54.974;73.410;2022-10-15T04:10:12;18.17;;;7.03;;
75504;SDS011;64085;54.974;73.410;2022-10-15T04:12:38;12.68;;;7.63;;
75504;SDS011;64085;54.974;73.410;2022-10-15T04:15:04;17.67;;;7.40;;
75504;SDS011;64085;54.974;73.410;2022-10-15T04:17:30;24.08;;;10.70;;
75504;SDS011;64085;54.974;73.410;2022-10-15T04:19:56;20.38;;;9.50;;
75504;SDS011;64085;54.974;73.410;2022-10-15T04:22:22;25.90;;;12.15;;
75504;SDS011;64085;54.974;73.410;2022-10-15T04:24:47;22.02;;;11.27;;
75504;SDS011;64085;54.974;73.410;2022-10-15T04:27:14;23.05;;;12.05;;
75504;SDS011;64085;54.974;73.410;2022-10-15T04:29:39;27.92;;;11.98;;
75504;SDS011;64085;54.974;73.410;2022-10-15T04:32:05;27.00;;;14.07;;
75504;SDS011;64085;54.974;73.410;2022-10-15T04:34:31;24.58;;;11.90;;
75504;SDS011;64085;54.974;73.410;2022-10-15T04:36:56;18.23;;;9.15;;
75504;SDS011;64085;54.974;73.410;2022-10-15T04:39:22;26.20;;;9.00;;
75504;SDS011;64085;54.974;73.410;2022-10-15T04:41:48;20.05;;;8.52;;
75504;SDS011;64085;54.974;73.410;2022-10-15T04:44:14;24.00;;;11.32;;
75504;SDS011;64085;54.974;73.410;2022-10-15T04:46:39;24.92;;;10.57;;
75504;SDS011;64085;54.974;73.410;2022-10-15T04:49:14;23.92;;;11.63;;
75504;SDS011;64085;54.974;73.410;2022-10-15T04:51:40;26.95;;;12.93;;
75504;SDS011;64085;54.974;73.410;2022-10-15T04:54:06;21.70;;;12.50;;
75504;SDS011;64085;54.974;73.410;2022-10-15T04:56:31;25.67;;;12.02;;
75504;SDS011;64085;54.974;73.410;2022-10-15T04:58:57;23.70;;;11.05;;
75504;SDS011;64085;54.974;73.410;2022-10-15T05:01:23;22.55;;;10.85;;
75504;SDS011;64085;54.974;73.410;2022-10-15T05:03:49;25.20;;;11.73;;
75504;SDS011;64085;54.974;73.410;2022-10-15T05:06:15;22.88;;;11.30;;
75504;SDS011;64085;54.974;73.410;2022-10-15T05:08:46;18.00;;;9.85;;
75504;SDS011;64085;54.974;73.410;2022-10-15T05:11:17;22.70;;;10.50;;
75504;SDS011;64085;54.974;73.410;2022-10-15T05:13:44;22.83;;;10.00;;
75504;SDS011;64085;54.974;73.410;2022-10-15T05:18:47;23.55;;;10.30;;
75504;SDS011;64085;54.974;73.410;2022-10-15T05:21:15;22.52;;;11.38;;
75504;SDS011;64085;54.974;73.410;2022-10-15T05:23:42;29.77;;;15.38;;
75504;SDS011;64085;54.974;73.410;2022-10-15T05:26:13;28.33;;;13.25;;
75504;SDS011;64085;54.974;73.410;2022-10-15T05:28:47;19.60;;;11.32;;
75504;SDS011;64085;54.974;73.410;2022-10-15T05:31:15;19.63;;;10.65;;
75504;SDS011;64085;54.974;73.410;2022-10-15T05:33:42;24.45;;;11.10;;
75504;SDS011;64085;54.974;73.410;2022-10-15T05:38:47;24.23;;;9.93;;
75504;SDS011;64085;54.974;73.410;2022-10-15T05:41:14;22.08;;;11.50;;
75504;SDS011;64085;54.974;73.410;2022-10-15T05:43:40;19.80;;;11.70;;
75504;SDS011;64085;54.974;73.410;2022-10-15T05:46:06;18.05;;;10.55;;
75504;SDS011;64085;54.974;73.410;2022-10-15T05:48:33;22.70;;;10.98;;
75504;SDS011;64085;54.974;73.410;2022-10-15T05:51:06;21.38;;;11.27;;
75504;SDS011;64085;54.974;73.410;2022-10-15T05:53:35;27.67;;;11.10;;
75504;SDS011;64085;54.974;73.410;2022-10-15T05:56:01;23.88;;;10.43;;
75504;SDS011;64085;54.974;73.410;2022-10-15T05:58:28;22.67;;;11.63;;
75504;SDS011;64085;54.974;73.410;2022-10-15T06:00:58;27.42;;;12.00;;
75504;SDS011;64085;54.974;73.410;2022-10-15T06:03:26;26.77;;;11.55;;
75504;SDS011;64085;54.974;73.410;2022-10-15T06:05:53;29.40;;;13.00;;
75504;SDS011;64085;54.974;73.410;2022-10-15T06:08:19;24.45;;;13.05;;
75504;SDS011;64085;54.974;73.410;2022-10-15T06:10:45;27.85;;;13.32;;
75504;SDS011;64085;54.974;73.410;2022-10-15T06:13:11;31.55;;;12.30;;
75504;SDS011;64085;54.974;73.410;2022-10-15T06:15:38;25.35;;;13.48;;
75504;SDS011;64085;54.974;73.410;2022-10-15T06:18:05;31.30;;;12.00;;
75504;SDS011;64085;54.974;73.410;2022-10-15T06:20:31;29.95;;;12.35;;
75504;SDS011;64085;54.974;73.410;2022-10-15T06:22:57;23.58;;;11.88;;
75504;SDS011;64085;54.974;73.410;2022-10-15T06:25:24;30.58;;;12.73;;
75504;SDS011;64085;54.974;73.410;2022-10-15T06:27:50;22.67;;;11.63;;
75504;SDS011;64085;54.974;73.410;2022-10-15T06:30:16;26.25;;;10.95;;
75504;SDS011;64085;54.974;73.410;2022-10-15T06:32:49;20.70;;;10.30;;
75504;SDS011;64085;54.974;73.410;2022-10-15T06:35:16;21.88;;;11.93;;
75504;SDS011;64085;54.974;73.410;2022-10-15T06:37:43;16.75;;;9.35;;
75504;SDS011;64085;54.974;73.410;2022-10-15T06:40:09;18.63;;;10.35;;
75504;SDS011;64085;54.974;73.410;2022-10-15T06:42:36;17.27;;;10.38;;
75504;SDS011;64085;54.974;73.410;2022-10-15T06:45:03;21.33;;;10.60;;
75504;SDS011;64085;54.974;73.410;2022-10-15T06:47:29;21.92;;;12.10;;
75504;SDS011;64085;54.974;73.410;2022-10-15T06:49:55;21.05;;;11.07;;
75504;SDS011;64085;54.974;73.410;2022-10-15T06:52:20;24.33;;;11.55;;
75504;SDS011;64085;54.974;73.410;2022-10-15T06:54:47;22.38;;;12.77;;
75504;SDS011;64085;54.974;73.410;2022-10-15T06:57:13;17.85;;;10.88;;
75504;SDS011;64085;54.974;73.410;2022-10-15T06:59:39;25.67;;;13.73;;
75504;SDS011;64085;54.974;73.410;2022-10-15T07:02:05;23.75;;;12.52;;
75504;SDS011;64085;54.974;73.410;2022-10-15T07:04:31;21.10;;;11.50;;
75504;SDS011;64085;54.974;73.410;2022-10-15T07:06:57;16.33;;;10.05;;
75504;SDS011;64085;54.974;73.410;2022-10-15T07:09:23;24.40;;;12.60;;
75504;SDS011;64085;54.974;73.410;2022-10-15T07:11:48;19.63;;;11.13;;
75504;SDS011;64085;54.974;73.410;2022-10-15T07:14:14;18.77;;;10.43;;
75504;SDS011;64085;54.974;73.410;2022-10-15T07:16:40;22.02;;;12.90;;
75504;SDS011;64085;54.974;73.410;2022-10-15T07:19:06;21.70;;;11.57;;
75504;SDS011;64085;54.974;73.410;2022-10-15T07:21:31;25.15;;;11.35;;
75504;SDS011;64085;54.974;73.410;2022-10-15T07:23:57;26.27;;;12.05;;
75504;SDS011;64085;54.974;73.410;2022-10-15T07:26:25;19.80;;;10.85;;
75504;SDS011;64085;54.974;73.410;2022-10-15T07:28:53;29.83;;;13.23;;
75504;SDS011;64085;54.974;73.410;2022-10-15T07:31:19;27.38;;;11.05;;
75504;SDS011;64085;54.974;73.410;2022-10-15T07:33:45;20.20;;;10.75;;
75504;SDS011;64085;54.974;73.410;2022-10-15T07:36:11;15.90;;;9.05;;
75504;SDS011;64085;54.974;73.410;2022-10-15T07:38:37;23.73;;;9.98;;
75504;SDS011;64085;54.974;73.410;2022-10-15T07:41:04;16.08;;;6.97;;
75504;SDS011;64085;54.974;73.410;2022-10-15T07:43:31;15.70;;;6.88;;
75504;SDS011;64085;54.974;73.410;2022-10-15T07:45:58;14.73;;;5.90;;
75504;SDS011;64085;54.974;73.410;2022-10-15T07:48:24;6.75;;;4.03;;
75504;SDS011;64085;54.974;73.410;2022-10-15T07:53:22;9.48;;;4.80;;
75504;SDS011;64085;54.974;73.410;2022-10-15T07:55:48;5.38;;;3.22;;
75504;SDS011;64085;54.974;73.410;2022-10-15T07:58:14;10.05;;;3.38;;
75504;SDS011;64085;54.974;73.410;2022-10-15T08:00:40;6.43;;;2.30;;
75504;SDS011;64085;54.974;73.410;2022-10-15T08:03:05;8.65;;;2.88;;
75504;SDS011;64085;54.974;73.410;2022-10-15T08:05:32;7.78;;;2.72;;
75504;SDS011;64085;54.974;73.410;2022-10-15T08:07:58;3.83;;;2.58;;
75504;SDS011;64085;54.974;73.410;2022-10-15T08:10:23;4.30;;;1.80;;
75504;SDS011;64085;54.974;73.410;2022-10-15T08:12:49;4.78;;;2.05;;
75504;SDS011;64085;54.974;73.410;2022-10-15T08:16:03;4.65;;;2.47;;
75504;SDS011;64085;54.974;73.410;2022-10-15T08:18:29;4.95;;;2.55;;
75504;SDS011;64085;54.974;73.410;2022-10-15T08:20:57;4.28;;;2.33;;
75504;SDS011;64085;54.974;73.410;2022-10-15T08:23:24;10.82;;;2.75;;
75504;SDS011;64085;54.974;73.410;2022-10-15T08:25:50;5.60;;;1.88;;
75504;SDS011;64085;54.974;73.410;2022-10-15T08:28:15;5.13;;;2.10;;
75504;SDS011;64085;54.974;73.410;2022-10-15T08:30:41;6.00;;;2.65;;
75504;SDS011;64085;54.974;73.410;2022-10-15T08:33:07;3.72;;;2.05;;
75504;SDS011;64085;54.974;73.410;2022-10-15T08:35:33;3.05;;;1.60;;
75504;SDS011;64085;54.974;73.410;2022-10-15T08:38:01;2.15;;;1.73;;
75504;SDS011;64085;54.974;73.410;2022-10-15T08:40:27;7.20;;;1.70;;
75504;SDS011;64085;54.974;73.410;2022-10-15T08:42:54;2.97;;;1.50;;
75504;SDS011;64085;54.974;73.410;2022-10-15T08:45:26;2.28;;;1.83;;
75504;SDS011;64085;54.974;73.410;2022-10-15T08:47:57;4.30;;;1.48;;
75504;SDS011;64085;54.974;73.410;2022-10-15T08:53:05;2.65;;;1.73;;
75504;SDS011;64085;54.974;73.410;2022-10-15T08:55:37;5.35;;;1.90;;
75504;SDS011;64085;54.974;73.410;2022-10-15T09:01:20;2.45;;;1.67;;
75504;SDS011;64085;54.974;73.410;2022-10-15T09:06:38;5.45;;;2.10;;
75504;SDS011;64085;54.974;73.410;2022-10-15T09:14:33;4.43;;;1.85;;
75504;SDS011;64085;54.974;73.410;2022-10-15T09:17:04;3.45;;;1.58;;
75504;SDS011;64085;54.974;73.410;2022-10-15T09:19:38;5.03;;;1.65;;
75504;SDS011;64085;54.974;73.410;2022-10-15T09:22:08;4.93;;;2.38;;
75504;SDS011;64085;54.974;73.410;2022-10-15T09:24:38;4.30;;;2.10;;
75504;SDS011;64085;54.974;73.410;2022-10-15T09:27:09;4.72;;;2.33;;
75504;SDS011;64085;54.974;73.410;2022-10-15T09:29:46;6.78;;;2.53;;
75504;SDS011;64085;54.974;73.410;2022-10-15T09:33:02;5.65;;;1.95;;
75504;SDS011;64085;54.974;73.410;2022-10-15T09:37:55;9.07;;;2.15;;
75504;SDS011;64085;54.974;73.410;2022-10-15T09:43:13;7.95;;;3.88;;
75504;SDS011;64085;54.974;73.410;2022-10-15T09:45:51;6.28;;;2.85;;
75504;SDS011;64085;54.974;73.410;2022-10-15T09:48:18;2.53;;;1.70;;
75504;SDS011;64085;54.974;73.410;2022-10-15T09:51:28;7.03;;;2.30;;
75504;SDS011;64085;54.974;73.410;2022-10-15T09:56:40;3.58;;;1.95;;
75504;SDS011;64085;54.974;73.410;2022-10-15T09:59:14;5.03;;;2.63;;
75504;SDS011;64085;54.974;73.410;2022-10-15T10:02:00;9.02;;;4.40;;
75504;SDS011;64085;54.974;73.410;2022-10-15T10:04:41;10.65;;;4.03;;
75504;SDS011;64085;54.974;73.410;2022-10-15T10:07:07;10.82;;;5.03;;
75504;SDS011;64085;54.974;73.410;2022-10-15T10:10:04;8.40;;;3.83;;
75504;SDS011;64085;54.974;73.410;2022-10-15T10:12:45;7.00;;;3.42;;
75504;SDS011;64085;54.974;73.410;2022-10-15T10:17:52;6.63;;;4.50;;
75504;SDS011;64085;54.974;73.410;2022-10-15T10:20:19;13.98;;;4.90;;
75504;SDS011;64085;54.974;73.410;2022-10-15T10:22:48;5.95;;;3.78;;
75504;SDS011;64085;54.974;73.410;2022-10-15T10:27:52;4.70;;;3.55;;
75504;SDS011;64085;54.974;73.410;2022-10-15T10:30:23;9.82;;;3.28;;
75504;SDS011;64085;54.974;73.410;2022-10-15T10:32:54;4.80;;;2.97;;
75504;SDS011;64085;54.974;73.410;2022-10-15T10:35:23;8.68;;;2.85;;
75504;SDS011;64085;54.974;73.410;2022-10-15T10:37:51;14.80;;;8.82;;
75504;SDS011;64085;54.974;73.410;2022-10-15T10:40:28;16.60;;;9.10;;
75504;SDS011;64085;54.974;73.410;2022-10-15T10:43:39;14.60;;;9.38;;
75504;SDS011;64085;54.974;73.410;2022-10-15T10:45:51;12.50;;;6.60;;
75504;SDS011;64085;54.974;73.410;2022-10-15T10:48:25;12.05;;;8.57;;
75504;SDS011;64085;54.974;73.410;2022-10-15T10:51:12;10.32;;;7.15;;
75504;SDS011;64085;54.974;73.410;2022-10-15T10:53:47;14.38;;;6.15;;
75504;SDS011;64085;54.974;73.410;2022-10-15T10:59:22;14.38;;;8.65;;
75504;SDS011;64085;54.974;73.410;2022-10-15T11:01:52;10.98;;;8.50;;
75504;SDS011;64085;54.974;73.410;2022-10-15T11:04:27;19.05;;;8.90;;
75504;SDS011;64085;54.974;73.410;2022-10-15T11:18:07;19.23;;;10.60;;
75504;SDS011;64085;54.974;73.410;2022-10-15T11:23:45;19.77;;;10.57;;
75504;SDS011;64085;54.974;73.410;2022-10-15T11:43:43;44.83;;;22.13;;
75504;SDS011;64085;54.974;73.410;2022-10-15T11:54:37;58.55;;;34.40;;
75504;SDS011;64085;54.974;73.410;2022-10-15T11:57:09;56.75;;;30.48;;
75504;SDS011;64085;54.974;73.410;2022-10-15T11:59:59;52.70;;;29.80;;
75504;SDS011;64085;54.974;73.410;2022-10-15T12:02:33;56.28;;;33.80;;
75504;SDS011;64085;54.974;73.410;2022-10-15T12:05:09;52.35;;;27.83;;
75504;SDS011;64085;54.974;73.410;2022-10-15T12:21:25;45.17;;;20.55;;
75504;SDS011;64085;54.974;73.410;2022-10-15T12:23:52;32.35;;;17.00;;
75504;SDS011;64085;54.974;73.410;2022-10-15T12:28:49;29.08;;;16.25;;
75504;SDS011;64085;54.974;73.410;2022-10-15T12:31:18;34.33;;;17.15;;
75504;SDS011;64085;54.974;73.410;2022-10-15T12:39:01;43.83;;;17.58;;
75504;SDS011;64085;54.974;73.410;2022-10-15T12:41:40;30.50;;;13.73;;
75504;SDS011;64085;54.974;73.410;2022-10-15T12:44:27;32.28;;;15.45;;
75504;SDS011;64085;54.974;73.410;2022-10-15T12:46:56;33.20;;;16.23;;
75504;SDS011;64085;54.974;73.410;2022-10-15T12:52:56;33.45;;;18.55;;
75504;SDS011;64085;54.974;73.410;2022-10-15T12:55:24;40.25;;;20.10;;
75504;SDS011;64085;54.974;73.410;2022-10-15T12:58:05;37.33;;;17.17;;
75504;SDS011;64085;54.974;73.410;2022-10-15T13:00:51;43.40;;;20.42;;
75504;SDS011;64085;54.974;73.410;2022-10-15T13:03:19;44.50;;;18.83;;
75504;SDS011;64085;54.974;73.410;2022-10-15T13:05:49;31.85;;;15.80;;
75504;SDS011;64085;54.974;73.410;2022-10-15T13:08:18;30.67;;;16.20;;
75504;SDS011;64085;54.974;73.410;2022-10-15T13:13:20;32.55;;;16.13;;
75504;SDS011;64085;54.974;73.410;2022-10-15T13:15:52;38.80;;;17.15;;
75504;SDS011;64085;54.974;73.410;2022-10-15T13:18:22;32.70;;;15.27;;
75504;SDS011;64085;54.974;73.410;2022-10-15T13:20:49;36.53;;;15.68;;
75504;SDS011;64085;54.974;73.410;2022-10-15T13:23:23;34.35;;;17.52;;
75504;SDS011;64085;54.974;73.410;2022-10-15T13:25:52;27.85;;;14.52;;
75504;SDS011;64085;54.974;73.410;2022-10-15T13:28:34;32.47;;;17.40;;
75504;SDS011;64085;54.974;73.410;2022-10-15T13:31:02;35.97;;;18.15;;
75504;SDS011;64085;54.974;73.410;2022-10-15T13:33:33;40.08;;;20.05;;
75504;SDS011;64085;54.974;73.410;2022-10-15T13:36:07;44.90;;;22.85;;
75504;SDS011;64085;54.974;73.410;2022-10-15T13:38:34;43.88;;;23.15;;
75504;SDS011;64085;54.974;73.410;2022-10-15T13:41:02;46.42;;;22.50;;
75504;SDS011;64085;54.974;73.410;2022-10-15T13:43:28;39.13;;;21.05;;
75504;SDS011;64085;54.974;73.410;2022-10-15T13:45:55;45.47;;;24.67;;
75504;SDS011;64085;54.974;73.410;2022-10-15T13:48:24;50.80;;;28.35;;
75504;SDS011;64085;54.974;73.410;2022-10-15T13:50:52;55.33;;;29.23;;
75504;SDS011;64085;54.974;73.410;2022-10-15T13:53:21;49.22;;;28.52;;
75504;SDS011;64085;54.974;73.410;2022-10-15T13:55:49;49.58;;;25.90;;
75504;SDS011;64085;54.974;73.410;2022-10-15T13:58:21;51.75;;;26.55;;
75504;SDS011;64085;54.974;73.410;2022-10-15T14:01:12;58.17;;;30.38;;
75504;SDS011;64085;54.974;73.410;2022-10-15T14:03:44;54.08;;;29.65;;
75504;SDS011;64085;54.974;73.410;2022-10-15T14:06:21;50.78;;;27.08;;
75504;SDS011;64085;54.974;73.410;2022-10-15T14:08:54;44.30;;;24.88;;
75504;SDS011;64085;54.974;73.410;2022-10-15T14:11:22;40.53;;;22.08;;
75504;SDS011;64085;54.974;73.410;2022-10-15T14:18:54;38.75;;;22.30;;
75504;SDS011;64085;54.974;73.410;2022-10-15T14:21:33;40.10;;;22.02;;
75504;SDS011;64085;54.974;73.410;2022-10-15T14:26:41;38.90;;;19.63;;
75504;SDS011;64085;54.974;73.410;2022-10-15T14:29:27;35.58;;;18.58;;
75504;SDS011;64085;54.974;73.410;2022-10-15T14:31:59;33.50;;;17.42;;
75504;SDS011;64085;54.974;73.410;2022-10-15T14:37:00;33.53;;;15.82;;
75504;SDS011;64085;54.974;73.410;2022-10-15T14:39:32;25.92;;;14.75;;
75504;SDS011;64085;54.974;73.410;2022-10-15T14:42:00;24.85;;;13.63;;
75504;SDS011;64085;54.974;73.410;2022-10-15T14:49:38;30.15;;;15.32;;
75504;SDS011;64085;54.974;73.410;2022-10-15T14:52:05;27.10;;;13.43;;
75504;SDS011;64085;54.974;73.410;2022-10-15T14:54:39;26.77;;;14.45;;
75504;SDS011;64085;54.974;73.410;2022-10-15T14:57:19;18.08;;;10.88;;
75504;SDS011;64085;54.974;73.410;2022-10-15T14:59:50;26.45;;;12.27;;
75504;SDS011;64085;54.974;73.410;2022-10-15T15:02:18;25.67;;;13.27;;
75504;SDS011;64085;54.974;73.410;2022-10-15T15:04:51;32.53;;;14.10;;
75504;SDS011;64085;54.974;73.410;2022-10-15T15:07:30;22.60;;;10.68;;
75504;SDS011;64085;54.974;73.410;2022-10-15T15:09:56;27.58;;;11.65;;
75504;SDS011;64085;54.974;73.410;2022-10-15T15:12:22;31.42;;;12.18;;
75504;SDS011;64085;54.974;73.410;2022-10-15T15:14:50;24.90;;;12.38;;
75504;SDS011;64085;54.974;73.410;2022-10-15T15:17:17;21.35;;;11.68;;
75504;SDS011;64085;54.974;73.410;2022-10-15T15:19:48;25.90;;;12.88;;
75504;SDS011;64085;54.974;73.410;2022-10-15T15:22:16;25.83;;;11.00;;
75504;SDS011;64085;54.974;73.410;2022-10-15T15:24:47;25.70;;;12.35;;
75504;SDS011;64085;54.974;73.410;2022-10-15T15:27:22;20.85;;;9.80;;
75504;SDS011;64085;54.974;73.410;2022-10-15T15:29:49;17.13;;;9.52;;
75504;SDS011;64085;54.974;73.410;2022-10-15T15:32:16;20.42;;;10.00;;
75504;SDS011;64085;54.974;73.410;2022-10-15T15:34:42;25.42;;;12.30;;
75504;SDS011;64085;54.974;73.410;2022-10-15T15:37:15;18.33;;;9.30;;
75504;SDS011;64085;54.974;73.410;2022-10-15T15:39:43;19.45;;;10.35;;
75504;SDS011;64085;54.974;73.410;2022-10-15T15:42:20;16.50;;;8.95;;
75504;SDS011;64085;54.974;73.410;2022-10-15T15:44:47;18.98;;;10.93;;
75504;SDS011;64085;54.974;73.410;2022-10-15T15:47:13;18.98;;;10.82;;
75504;SDS011;64085;54.974;73.410;2022-10-15T15:49:39;29.20;;;17.17;;
75504;SDS011;64085;54.974;73.410;2022-10-15T15:52:06;18.90;;;10.95;;
75504;SDS011;64085;54.974;73.410;2022-10-15T15:54:38;25.73;;;12.15;;
75504;SDS011;64085;54.974;73.410;2022-10-15T15:57:05;19.27;;;11.82;;
75504;SDS011;64085;54.974;73.410;2022-10-15T15:59:30;20.80;;;11.80;;
75504;SDS011;64085;54.974;73.410;2022-10-15T16:01:56;19.60;;;9.75;;
75504;SDS011;64085;54.974;73.410;2022-10-15T16:04:22;22.98;;;11.07;;
75504;SDS011;64085;54.974;73.410;2022-10-15T16:06:48;20.33;;;10.55;;
75504;SDS011;64085;54.974;73.410;2022-10-15T16:09:15;28.73;;;12.38;;
75504;SDS011;64085;54.974;73.410;2022-10-15T16:11:42;20.08;;;10.20;;
75504;SDS011;64085;54.974;73.410;2022-10-15T16:14:08;23.55;;;10.48;;
75504;SDS011;64085;54.974;73.410;2022-10-15T16:16:33;19.20;;;9.50;;
75504;SDS011;64085;54.974;73.410;2022-10-15T16:19:00;20.55;;;10.27;;
75504;SDS011;64085;54.974;73.410;2022-10-15T16:21:26;16.52;;;9.27;;
75504;SDS011;64085;54.974;73.410;2022-10-15T16:23:53;16.90;;;8.52;;
75504;SDS011;64085;54.974;73.410;2022-10-15T16:26:18;22.10;;;8.93;;
75504;SDS011;64085;54.974;73.410;2022-10-15T16:28:45;22.98;;;8.90;;
75504;SDS011;64085;54.974;73.410;2022-10-15T16:31:14;17.90;;;8.93;;
75504;SDS011;64085;54.974;73.410;2022-10-15T16:33:44;22.30;;;11.48;;
75504;SDS011;64085;54.974;73.410;2022-10-15T16:36:11;15.15;;;8.30;;
75504;SDS011;64085;54.974;73.410;2022-10-15T16:38:38;16.95;;;8.27;;
75504;SDS011;64085;54.974;73.410;2022-10-15T16:41:04;15.27;;;6.32;;
75504;SDS011;64085;54.974;73.410;2022-10-15T16:43:31;11.07;;;6.70;;
75504;SDS011;64085;54.974;73.410;2022-10-15T16:45:58;15.55;;;7.13;;
75504;SDS011;64085;54.974;73.410;2022-10-15T16:48:25;12.30;;;6.00;;
75504;SDS011;64085;54.974;73.410;2022-10-15T16:53:32;15.77;;;7.07;;
75504;SDS011;64085;54.974;73.410;2022-10-15T16:56:06;15.15;;;6.45;;
75504;SDS011;64085;54.974;73.410;2022-10-15T17:01:04;18.15;;;8.40;;
75504;SDS011;64085;54.974;73.410;2022-10-15T17:03:32;19.75;;;9.52;;
75504;SDS011;64085;54.974;73.410;2022-10-15T17:06:02;15.27;;;10.20;;
75504;SDS011;64085;54.974;73.410;2022-10-15T17:08:33;24.88;;;10.60;;
75504;SDS011;64085;54.974;73.410;2022-10-15T17:11:07;15.98;;;9.10;;